sensor_id;sensor_type;location;lat;lon;timestamp;pressure;altitude;pressure_sealevel;temperature;humidity
11349;BME280;5729;43.570;27.826;2023-04-23T00:01:36;99180.09;;;8.81;100.00
11349;BME280;5729;43.570;27.826;2023-04-23T00:04:05;99173.06;;;8.77;100.00
11349;BME280;5729;43.570;27.826;2023-04-23T00:06:33;99189.78;;;8.58;100.00
11349;BME280;5729;43.570;27.826;2023-04-23T00:09:00;99191.19;;;8.40;100.00
11349;BME280;5729;43.570;27.826;2023-04-23T00:11:26;99195.31;;;8.49;100.00
11349;BME280;5729;43.570;27.826;2023-04-23T00:13:52;99182.31;;;8.51;100.00
11349;BME280;5729;43.570;27.826;2023-04-23T00:16:19;99173.16;;;8.52;100.00
11349;BME280;5729;43.570;27.826;2023-04-23T00:18:45;99180.28;;;8.60;100.00
11349;BME280;5729;43.570;27.826;2023-04-23T00:21:10;99184.41;;;8.58;100.00
11349;BME280;5729;43.570;27.826;2023-04-23T00:23:37;99176.16;;;8.51;100.00
11349;BME280;5729;43.570;27.826;2023-04-23T00:26:03;99172.38;;;8.52;100.00
11349;BME280;5729;43.570;27.826;2023-04-23T00:28:28;99172.03;;;8.53;100.00
11349;BME280;5729;43.570;27.826;2023-04-23T00:30:54;99174.28;;;8.51;100.00
11349;BME280;5729;43.570;27.826;2023-04-23T00:33:19;99166.75;;;8.57;100.00
11349;BME280;5729;43.570;27.826;2023-04-23T00:35:45;99172.13;;;8.57;100.00
11349;BME280;5729;43.570;27.826;2023-04-23T00:38:10;99162.22;;;8.45;100.00
11349;BME280;5729;43.570;27.826;2023-04-23T00:40:36;99159.75;;;8.40;100.00
11349;BME280;5729;43.570;27.826;2023-04-23T00:43:02;99168.13;;;8.38;100.00
11349;BME280;5729;43.570;27.826;2023-04-23T00:45:27;99174.97;;;8.36;100.00
11349;BME280;5729;43.570;27.826;2023-04-23T00:47:53;99175.50;;;8.29;100.00
11349;BME280;5729;43.570;27.826;2023-04-23T00:50:20;99180.09;;;8.29;100.00
11349;BME280;5729;43.570;27.826;2023-04-23T00:52:45;99173.41;;;8.23;100.00
11349;BME280;5729;43.570;27.826;2023-04-23T00:55:11;99173.53;;;8.02;100.00
11349;BME280;5729;43.570;27.826;2023-04-23T00:57:37;99175.78;;;8.12;100.00
11349;BME280;5729;43.570;27.826;2023-04-23T01:00:06;99172.63;;;8.10;100.00
11349;BME280;5729;43.570;27.826;2023-04-23T01:02:33;99176.53;;;8.13;100.00
11349;BME280;5729;43.570;27.826;2023-04-23T01:05:03;99177.56;;;8.08;100.00
11349;BME280;5729;43.570;27.826;2023-04-23T01:07:30;99181.69;;;8.06;100.00
11349;BME280;5729;43.570;27.826;2023-04-23T01:09:56;99177.00;;;7.90;100.00
11349;BME280;5729;43.570;27.826;2023-04-23T01:12:22;99179.59;;;7.87;100.00
11349;BME280;5729;43.570;27.826;2023-04-23T01:14:47;99180.91;;;7.93;100.00
11349;BME280;5729;43.570;27.826;2023-04-23T01:17:13;99177.69;;;7.87;100.00
11349;BME280;5729;43.570;27.826;2023-04-23T01:19:39;99186.59;;;7.91;100.00
11349;BME280;5729;43.570;27.826;2023-04-23T01:22:23;99179.66;;;7.90;100.00
11349;BME280;5729;43.570;27.826;2023-04-23T01:24:48;99179.47;;;7.83;100.00
11349;BME280;5729;43.570;27.826;2023-04-23T01:27:15;99182.81;;;7.80;100.00
11349;BME280;5729;43.570;27.826;2023-04-23T01:29:41;99184.81;;;7.71;100.00
11349;BME280;5729;43.570;27.826;2023-04-23T01:32:07;99175.63;;;7.60;100.00
11349;BME280;5729;43.570;27.826;2023-04-23T01:34:34;99176.22;;;7.65;100.00
11349;BME280;5729;43.570;27.826;2023-04-23T01:36:59;99179.22;;;7.64;100.00
11349;BME280;5729;43.570;27.826;2023-04-23T01:39:26;99182.00;;;7.68;100.00
11349;BME280;5729;43.570;27.826;2023-04-23T01:41:52;99188.16;;;7.68;100.00
11349;BME280;5729;43.570;27.826;2023-04-23T01:44:18;99196.66;;;7.70;100.00
11349;BME280;5729;43.570;27.826;2023-04-23T01:46:43;99183.47;;;7.65;100.00
11349;BME280;5729;43.570;27.826;2023-04-23T01:49:09;99186.72;;;7.71;100.00
11349;BME280;5729;43.570;27.826;2023-04-23T01:51:35;99188.75;;;7.74;100.00
11349;BME280;5729;43.570;27.826;2023-04-23T01:54:00;99191.28;;;7.70;100.00
11349;BME280;5729;43.570;27.826;2023-04-23T01:56:27;99189.97;;;7.76;100.00
11349;BME280;5729;43.570;27.826;2023-04-23T01:58:53;99193.13;;;7.78;100.00
11349;BME280;5729;43.570;27.826;2023-04-23T02:01:18;99178.00;;;7.74;100.00
11349;BME280;5729;43.570;27.826;2023-04-23T02:03:45;99190.06;;;7.80;100.00
11349;BME280;5729;43.570;27.826;2023-04-23T02:06:11;99186.38;;;7.84;100.00
11349;BME280;5729;43.570;27.826;2023-04-23T02:08:37;99197.13;;;7.84;100.00
11349;BME280;5729;43.570;27.826;2023-04-23T02:11:04;99197.56;;;7.74;100.00
11349;BME280;5729;43.570;27.826;2023-04-23T02:13:31;99194.09;;;7.74;100.00
11349;BME280;5729;43.570;27.826;2023-04-23T02:15:56;99192.31;;;7.65;100.00
11349;BME280;5729;43.570;27.826;2023-04-23T02:18:21;99195.41;;;7.68;100.00
11349;BME280;5729;43.570;27.826;2023-04-23T02:20:47;99199.00;;;7.72;100.00
11349;BME280;5729;43.570;27.826;2023-04-23T02:23:12;99199.47;;;7.74;100.00
11349;BME280;5729;43.570;27.826;2023-04-23T02:25:38;99201.56;;;7.68;100.00
11349;BME280;5729;43.570;27.826;2023-04-23T02:28:06;99178.56;;;7.55;100.00
11349;BME280;5729;43.570;27.826;2023-04-23T02:30:35;99199.78;;;7.72;100.00
11349;BME280;5729;43.570;27.826;2023-04-23T02:33:01;99195.53;;;7.71;100.00
11349;BME280;5729;43.570;27.826;2023-04-23T02:35:26;99204.72;;;7.70;100.00
11349;BME280;5729;43.570;27.826;2023-04-23T02:37:52;99195.88;;;7.70;100.00
11349;BME280;5729;43.570;27.826;2023-04-23T02:40:18;99194.22;;;7.65;100.00
11349;BME280;5729;43.570;27.826;2023-04-23T02:42:44;99192.53;;;7.73;100.00
11349;BME280;5729;43.570;27.826;2023-04-23T02:45:10;99195.22;;;7.73;100.00
11349;BME280;5729;43.570;27.826;2023-04-23T02:47:36;99192.19;;;7.74;100.00
11349;BME280;5729;43.570;27.826;2023-04-23T02:50:02;99193.00;;;7.75;100.00
11349;BME280;5729;43.570;27.826;2023-04-23T02:52:30;99191.09;;;7.75;100.00
11349;BME280;5729;43.570;27.826;2023-04-23T02:54:55;99198.34;;;7.75;100.00
11349;BME280;5729;43.570;27.826;2023-04-23T02:57:21;99187.63;;;7.75;100.00
11349;BME280;5729;43.570;27.826;2023-04-23T02:59:47;99198.34;;;7.75;100.00
11349;BME280;5729;43.570;27.826;2023-04-23T03:02:12;99201.50;;;7.77;100.00
11349;BME280;5729;43.570;27.826;2023-04-23T03:04:38;99196.19;;;7.68;100.00
11349;BME280;5729;43.570;27.826;2023-04-23T03:07:03;99197.78;;;7.69;100.00
11349;BME280;5729;43.570;27.826;2023-04-23T03:09:29;99199.34;;;7.70;100.00
11349;BME280;5729;43.570;27.826;2023-04-23T03:11:55;99198.47;;;7.66;100.00
11349;BME280;5729;43.570;27.826;2023-04-23T03:14:21;99188.38;;;7.63;100.00
11349;BME280;5729;43.570;27.826;2023-04-23T03:16:47;99194.75;;;7.58;100.00
11349;BME280;5729;43.570;27.826;2023-04-23T03:19:13;99192.19;;;7.62;100.00
11349;BME280;5729;43.570;27.826;2023-04-23T03:21:39;99191.41;;;7.61;100.00
11349;BME280;5729;43.570;27.826;2023-04-23T03:24:05;99198.66;;;7.61;100.00
11349;BME280;5729;43.570;27.826;2023-04-23T03:26:30;99193.97;;;7.58;100.00
11349;BME280;5729;43.570;27.826;2023-04-23T03:28:56;99194.97;;;7.53;100.00
11349;BME280;5729;43.570;27.826;2023-04-23T03:31:21;99203.34;;;7.52;100.00
11349;BME280;5729;43.570;27.826;2023-04-23T03:33:47;99197.31;;;7.43;100.00
11349;BME280;5729;43.570;27.826;2023-04-23T03:36:12;99203.19;;;7.36;100.00
11349;BME280;5729;43.570;27.826;2023-04-23T03:38:38;99199.28;;;7.34;100.00
11349;BME280;5729;43.570;27.826;2023-04-23T03:41:03;99203.97;;;7.37;100.00
11349;BME280;5729;43.570;27.826;2023-04-23T03:43:29;99201.44;;;7.40;100.00
11349;BME280;5729;43.570;27.826;2023-04-23T03:45:54;99211.81;;;7.42;100.00
11349;BME280;5729;43.570;27.826;2023-04-23T03:48:19;99216.41;;;7.41;100.00
11349;BME280;5729;43.570;27.826;2023-04-23T03:50:46;99213.50;;;7.46;100.00
11349;BME280;5729;43.570;27.826;2023-04-23T03:53:11;99213.06;;;7.44;100.00
11349;BME280;5729;43.570;27.826;2023-04-23T03:55:36;99206.13;;;7.43;100.00
11349;BME280;5729;43.570;27.826;2023-04-23T03:58:02;99218.53;;;7.48;100.00
11349;BME280;5729;43.570;27.826;2023-04-23T04:00:27;99216.75;;;7.52;100.00
11349;BME280;5729;43.570;27.826;2023-04-23T04:02:53;99226.03;;;7.54;100.00
11349;BME280;5729;43.570;27.826;2023-04-23T04:05:19;99225.34;;;7.57;100.00
11349;BME280;5729;43.570;27.826;2023-04-23T04:07:44;99228.41;;;7.68;100.00
11349;BME280;5729;43.570;27.826;2023-04-23T04:10:10;99226.63;;;7.72;100.00
11349;BME280;5729;43.570;27.826;2023-04-23T04:12:35;99228.31;;;7.77;100.00
11349;BME280;5729;43.570;27.826;2023-04-23T04:15:02;99220.81;;;7.70;100.00
11349;BME280;5729;43.570;27.826;2023-04-23T04:17:27;99242.28;;;7.82;100.00
11349;BME280;5729;43.570;27.826;2023-04-23T04:19:52;99238.50;;;7.83;100.00
11349;BME280;5729;43.570;27.826;2023-04-23T04:22:18;99241.63;;;7.85;100.00
11349;BME280;5729;43.570;27.826;2023-04-23T04:24:43;99242.53;;;7.89;100.00
11349;BME280;5729;43.570;27.826;2023-04-23T04:27:11;99242.97;;;7.91;100.00
11349;BME280;5729;43.570;27.826;2023-04-23T04:29:37;99246.22;;;7.85;100.00
11349;BME280;5729;43.570;27.826;2023-04-23T04:32:05;99249.56;;;7.94;100.00
11349;BME280;5729;43.570;27.826;2023-04-23T04:34:31;99249.69;;;7.97;100.00
11349;BME280;5729;43.570;27.826;2023-04-23T04:36:57;99249.13;;;8.04;100.00
11349;BME280;5729;43.570;27.826;2023-04-23T04:39:22;99251.28;;;8.11;100.00
11349;BME280;5729;43.570;27.826;2023-04-23T04:41:48;99248.00;;;8.17;100.00
11349;BME280;5729;43.570;27.826;2023-04-23T04:44:13;99249.78;;;8.25;100.00
11349;BME280;5729;43.570;27.826;2023-04-23T04:46:40;99253.19;;;8.34;100.00
11349;BME280;5729;43.570;27.826;2023-04-23T04:49:10;99252.63;;;8.41;100.00
11349;BME280;5729;43.570;27.826;2023-04-23T04:51:37;99247.91;;;8.50;100.00
11349;BME280;5729;43.570;27.826;2023-04-23T04:54:02;99252.03;;;8.60;100.00
11349;BME280;5729;43.570;27.826;2023-04-23T04:56:28;99256.75;;;8.63;100.00
11349;BME280;5729;43.570;27.826;2023-04-23T04:58:53;99264.31;;;8.73;100.00
11349;BME280;5729;43.570;27.826;2023-04-23T05:01:20;99258.03;;;8.81;100.00
11349;BME280;5729;43.570;27.826;2023-04-23T05:03:48;99263.28;;;8.90;100.00
11349;BME280;5729;43.570;27.826;2023-04-23T05:06:14;99259.34;;;8.99;100.00
11349;BME280;5729;43.570;27.826;2023-04-23T05:08:39;99268.16;;;9.12;100.00
11349;BME280;5729;43.570;27.826;2023-04-23T05:11:06;99254.66;;;9.24;100.00
11349;BME280;5729;43.570;27.826;2023-04-23T05:13:32;99256.06;;;9.34;100.00
11349;BME280;5729;43.570;27.826;2023-04-23T05:15:57;99257.94;;;9.45;100.00
11349;BME280;5729;43.570;27.826;2023-04-23T05:18:23;99259.66;;;9.54;100.00
11349;BME280;5729;43.570;27.826;2023-04-23T05:20:48;99256.81;;;9.62;100.00
11349;BME280;5729;43.570;27.826;2023-04-23T05:23:14;99259.72;;;9.69;100.00
11349;BME280;5729;43.570;27.826;2023-04-23T05:25:39;99259.53;;;9.78;100.00
11349;BME280;5729;43.570;27.826;2023-04-23T05:28:05;99262.16;;;9.90;100.00
11349;BME280;5729;43.570;27.826;2023-04-23T05:30:32;99265.09;;;10.01;100.00
11349;BME280;5729;43.570;27.826;2023-04-23T05:32:58;99256.50;;;10.11;100.00
11349;BME280;5729;43.570;27.826;2023-04-23T05:35:23;99258.34;;;10.23;100.00
11349;BME280;5729;43.570;27.826;2023-04-23T05:37:49;99265.22;;;10.36;100.00
11349;BME280;5729;43.570;27.826;2023-04-23T05:40:14;99258.50;;;10.45;100.00
11349;BME280;5729;43.570;27.826;2023-04-23T05:42:40;99253.06;;;10.61;100.00
11349;BME280;5729;43.570;27.826;2023-04-23T05:45:05;99258.63;;;10.68;100.00
11349;BME280;5729;43.570;27.826;2023-04-23T05:47:31;99261.19;;;10.80;100.00
11349;BME280;5729;43.570;27.826;2023-04-23T05:49:56;99255.38;;;10.78;100.00
11349;BME280;5729;43.570;27.826;2023-04-23T05:52:22;99264.88;;;10.91;100.00
11349;BME280;5729;43.570;27.826;2023-04-23T05:54:49;99267.38;;;11.00;100.00
11349;BME280;5729;43.570;27.826;2023-04-23T05:57:15;99263.75;;;11.12;100.00
11349;BME280;5729;43.570;27.826;2023-04-23T05:59:40;99268.66;;;11.25;100.00
11349;BME280;5729;43.570;27.826;2023-04-23T06:02:07;99261.56;;;11.37;100.00
11349;BME280;5729;43.570;27.826;2023-04-23T06:04:33;99269.50;;;11.49;100.00
11349;BME280;5729;43.570;27.826;2023-04-23T06:06:59;99266.25;;;11.62;100.00
11349;BME280;5729;43.570;27.826;2023-04-23T06:09:24;99265.31;;;11.74;100.00
11349;BME280;5729;43.570;27.826;2023-04-23T06:11:51;99271.31;;;11.83;100.00
11349;BME280;5729;43.570;27.826;2023-04-23T06:14:17;99276.16;;;11.97;100.00
11349;BME280;5729;43.570;27.826;2023-04-23T06:16:42;99274.38;;;12.05;100.00
11349;BME280;5729;43.570;27.826;2023-04-23T06:19:07;99274.63;;;12.19;100.00
11349;BME280;5729;43.570;27.826;2023-04-23T06:21:33;99273.22;;;12.28;100.00
11349;BME280;5729;43.570;27.826;2023-04-23T06:23:58;99267.81;;;12.28;100.00
11349;BME280;5729;43.570;27.826;2023-04-23T06:26:24;99271.47;;;12.40;100.00
11349;BME280;5729;43.570;27.826;2023-04-23T06:28:49;99260.53;;;12.59;100.00
11349;BME280;5729;43.570;27.826;2023-04-23T06:31:15;99270.00;;;12.72;100.00
11349;BME280;5729;43.570;27.826;2023-04-23T06:33:40;99265.50;;;12.83;100.00
11349;BME280;5729;43.570;27.826;2023-04-23T06:36:06;99276.91;;;12.99;100.00
11349;BME280;5729;43.570;27.826;2023-04-23T06:38:35;99273.28;;;13.15;100.00
11349;BME280;5729;43.570;27.826;2023-04-23T06:41:02;99271.94;;;13.31;100.00
11349;BME280;5729;43.570;27.826;2023-04-23T06:43:27;99267.78;;;13.41;100.00
11349;BME280;5729;43.570;27.826;2023-04-23T06:45:52;99264.00;;;13.49;100.00
11349;BME280;5729;43.570;27.826;2023-04-23T06:48:18;99278.06;;;13.62;100.00
11349;BME280;5729;43.570;27.826;2023-04-23T06:50:46;99269.19;;;13.65;100.00
11349;BME280;5729;43.570;27.826;2023-04-23T06:53:12;99263.13;;;13.78;100.00
11349;BME280;5729;43.570;27.826;2023-04-23T06:55:37;99265.94;;;13.89;100.00
11349;BME280;5729;43.570;27.826;2023-04-23T06:58:03;99263.31;;;14.00;100.00
11349;BME280;5729;43.570;27.826;2023-04-23T07:00:31;99272.34;;;14.14;100.00
11349;BME280;5729;43.570;27.826;2023-04-23T07:02:57;99263.88;;;14.23;100.00
11349;BME280;5729;43.570;27.826;2023-04-23T07:05:22;99269.88;;;14.39;100.00
11349;BME280;5729;43.570;27.826;2023-04-23T07:07:48;99264.88;;;14.48;100.00
11349;BME280;5729;43.570;27.826;2023-04-23T07:10:13;99268.03;;;14.54;100.00
11349;BME280;5729;43.570;27.826;2023-04-23T07:12:39;99271.22;;;14.70;100.00
11349;BME280;5729;43.570;27.826;2023-04-23T07:15:06;99262.34;;;14.77;100.00
11349;BME280;5729;43.570;27.826;2023-04-23T07:17:32;99275.59;;;14.93;100.00
11349;BME280;5729;43.570;27.826;2023-04-23T07:19:57;99266.72;;;14.96;100.00
11349;BME280;5729;43.570;27.826;2023-04-23T07:22:24;99271.00;;;15.04;99.40
11349;BME280;5729;43.570;27.826;2023-04-23T07:24:51;99262.50;;;15.12;100.00
11349;BME280;5729;43.570;27.826;2023-04-23T07:27:17;99264.84;;;15.17;100.00
11349;BME280;5729;43.570;27.826;2023-04-23T07:29:42;99274.19;;;15.27;100.00
11349;BME280;5729;43.570;27.826;2023-04-23T07:32:08;99273.06;;;15.39;92.41
11349;BME280;5729;43.570;27.826;2023-04-23T07:34:33;99270.47;;;15.56;89.62
11349;BME280;5729;43.570;27.826;2023-04-23T07:37:01;99276.69;;;15.64;89.96
11349;BME280;5729;43.570;27.826;2023-04-23T07:39:26;99270.09;;;15.76;96.77
11349;BME280;5729;43.570;27.826;2023-04-23T07:41:52;99269.34;;;15.86;94.27
11349;BME280;5729;43.570;27.826;2023-04-23T07:44:17;99272.06;;;16.04;85.52
11349;BME280;5729;43.570;27.826;2023-04-23T07:46:43;99270.13;;;16.15;75.54
11349;BME280;5729;43.570;27.826;2023-04-23T07:49:08;99276.34;;;16.19;73.18
11349;BME280;5729;43.570;27.826;2023-04-23T07:51:34;99268.97;;;16.12;71.29
11349;BME280;5729;43.570;27.826;2023-04-23T07:54:00;99267.03;;;16.09;68.69
11349;BME280;5729;43.570;27.826;2023-04-23T07:56:25;99268.94;;;16.26;69.95
11349;BME280;5729;43.570;27.826;2023-04-23T07:58:51;99259.63;;;16.34;67.98
11349;BME280;5729;43.570;27.826;2023-04-23T08:01:18;99267.78;;;16.56;71.44
11349;BME280;5729;43.570;27.826;2023-04-23T08:03:44;99246.38;;;16.58;78.72
11349;BME280;5729;43.570;27.826;2023-04-23T08:06:10;99259.19;;;16.72;85.46
11349;BME280;5729;43.570;27.826;2023-04-23T08:08:36;99260.72;;;16.87;89.70
11349;BME280;5729;43.570;27.826;2023-04-23T08:11:02;99261.75;;;17.21;83.97
11349;BME280;5729;43.570;27.826;2023-04-23T08:13:27;99263.25;;;17.36;82.28
11349;BME280;5729;43.570;27.826;2023-04-23T08:15:53;99257.03;;;17.36;79.28
11349;BME280;5729;43.570;27.826;2023-04-23T08:18:18;99260.00;;;17.63;79.46
11349;BME280;5729;43.570;27.826;2023-04-23T08:20:44;99263.50;;;18.19;73.39
11349;BME280;5729;43.570;27.826;2023-04-23T08:23:09;99250.19;;;19.33;69.14
11349;BME280;5729;43.570;27.826;2023-04-23T08:25:35;99256.19;;;23.09;50.24
11349;BME280;5729;43.570;27.826;2023-04-23T08:28:00;99253.09;;;27.93;37.04
11349;BME280;5729;43.570;27.826;2023-04-23T08:30:26;99253.53;;;32.39;29.22
11349;BME280;5729;43.570;27.826;2023-04-23T08:32:52;99247.00;;;35.25;24.25
11349;BME280;5729;43.570;27.826;2023-04-23T08:35:18;99237.19;;;38.13;20.21
11349;BME280;5729;43.570;27.826;2023-04-23T08:37:44;99249.91;;;39.43;19.78
11349;BME280;5729;43.570;27.826;2023-04-23T08:40:10;99239.41;;;38.89;18.66
11349;BME280;5729;43.570;27.826;2023-04-23T08:42:51;99233.38;;;39.96;18.71
11349;BME280;5729;43.570;27.826;2023-04-23T08:45:20;99231.13;;;40.74;16.52
11349;BME280;5729;43.570;27.826;2023-04-23T08:47:46;99225.94;;;42.25;16.10
11349;BME280;5729;43.570;27.826;2023-04-23T08:50:13;99228.16;;;41.41;17.23
11349;BME280;5729;43.570;27.826;2023-04-23T08:52:46;99223.00;;;40.78;16.45
11349;BME280;5729;43.570;27.826;2023-04-23T08:55:14;99223.88;;;40.66;16.11
11349;BME280;5729;43.570;27.826;2023-04-23T08:57:41;99221.44;;;40.18;16.27
11349;BME280;5729;43.570;27.826;2023-04-23T09:00:10;99216.81;;;40.95;16.41
11349;BME280;5729;43.570;27.826;2023-04-23T09:02:39;99211.44;;;42.21;15.20
11349;BME280;5729;43.570;27.826;2023-04-23T09:05:05;99211.56;;;41.37;15.55
11349;BME280;5729;43.570;27.826;2023-04-23T09:07:32;99213.88;;;40.57;15.76
11349;BME280;5729;43.570;27.826;2023-04-23T09:09:58;99202.88;;;40.97;15.66
11349;BME280;5729;43.570;27.826;2023-04-23T09:12:24;99210.09;;;40.54;17.06
11349;BME280;5729;43.570;27.826;2023-04-23T09:14:50;99205.53;;;41.25;14.39
11349;BME280;5729;43.570;27.826;2023-04-23T09:17:19;99203.44;;;41.72;13.90
11349;BME280;5729;43.570;27.826;2023-04-23T09:19:48;99203.66;;;41.58;13.62
11349;BME280;5729;43.570;27.826;2023-04-23T09:22:14;99209.03;;;41.94;13.57
11349;BME280;5729;43.570;27.826;2023-04-23T09:24:43;99198.44;;;40.07;14.24
11349;BME280;5729;43.570;27.826;2023-04-23T09:27:08;99192.59;;;38.65;15.71
11349;BME280;5729;43.570;27.826;2023-04-23T09:29:34;99187.97;;;39.58;14.80
11349;BME280;5729;43.570;27.826;2023-04-23T09:32:06;99191.25;;;39.70;13.44
11349;BME280;5729;43.570;27.826;2023-04-23T09:34:34;99185.16;;;37.67;15.02
11349;BME280;5729;43.570;27.826;2023-04-23T09:37:01;99185.47;;;37.90;16.90
11349;BME280;5729;43.570;27.826;2023-04-23T09:39:28;99182.22;;;38.60;15.97
11349;BME280;5729;43.570;27.826;2023-04-23T09:42:02;99180.66;;;38.25;16.40
11349;BME280;5729;43.570;27.826;2023-04-23T09:44:31;99174.75;;;39.25;16.61
11349;BME280;5729;43.570;27.826;2023-04-23T09:47:04;99180.44;;;40.25;16.13
11349;BME280;5729;43.570;27.826;2023-04-23T09:49:30;99172.34;;;41.11;15.46
11349;BME280;5729;43.570;27.826;2023-04-23T09:51:55;99173.28;;;39.31;14.51
11349;BME280;5729;43.570;27.826;2023-04-23T09:54:21;99170.41;;;40.60;14.65
11349;BME280;5729;43.570;27.826;2023-04-23T09:56:49;99169.03;;;38.41;15.99
11349;BME280;5729;43.570;27.826;2023-04-23T09:59:22;99164.34;;;38.57;16.40
11349;BME280;5729;43.570;27.826;2023-04-23T10:01:47;99165.03;;;38.37;16.33
11349;BME280;5729;43.570;27.826;2023-04-23T10:04:17;99164.63;;;36.63;17.37
11349;BME280;5729;43.570;27.826;2023-04-23T10:06:44;99162.34;;;36.06;18.83
11349;BME280;5729;43.570;27.826;2023-04-23T10:09:09;99156.88;;;36.69;19.02
11349;BME280;5729;43.570;27.826;2023-04-23T10:11:35;99164.59;;;35.88;18.67
11349;BME280;5729;43.570;27.826;2023-04-23T10:14:02;99162.28;;;35.44;16.86
11349;BME280;5729;43.570;27.826;2023-04-23T10:16:28;99153.75;;;34.59;20.13
11349;BME280;5729;43.570;27.826;2023-04-23T10:18:53;99154.78;;;34.10;19.78
11349;BME280;5729;43.570;27.826;2023-04-23T10:21:24;99153.19;;;32.51;20.86
11349;BME280;5729;43.570;27.826;2023-04-23T10:23:53;99149.28;;;31.29;22.90
11349;BME280;5729;43.570;27.826;2023-04-23T10:26:21;99155.03;;;29.76;23.35
11349;BME280;5729;43.570;27.826;2023-04-23T10:28:49;99152.84;;;29.45;24.05
11349;BME280;5729;43.570;27.826;2023-04-23T10:31:15;99145.97;;;30.94;24.21
11349;BME280;5729;43.570;27.826;2023-04-23T10:33:44;99140.28;;;32.87;20.26
11349;BME280;5729;43.570;27.826;2023-04-23T10:36:11;99141.03;;;33.15;20.65
11349;BME280;5729;43.570;27.826;2023-04-23T10:38:38;99151.69;;;31.48;23.09
11349;BME280;5729;43.570;27.826;2023-04-23T10:41:04;99137.94;;;31.75;22.87
11349;BME280;5729;43.570;27.826;2023-04-23T10:43:31;99136.38;;;32.39;22.22
11349;BME280;5729;43.570;27.826;2023-04-23T10:45:59;99140.69;;;32.29;21.33
11349;BME280;5729;43.570;27.826;2023-04-23T10:48:27;99131.09;;;32.47;21.28
11349;BME280;5729;43.570;27.826;2023-04-23T10:50:58;99137.47;;;32.70;21.26
11349;BME280;5729;43.570;27.826;2023-04-23T10:53:25;99136.94;;;32.49;22.98
11349;BME280;5729;43.570;27.826;2023-04-23T10:56:03;99141.22;;;30.22;25.06
11349;BME280;5729;43.570;27.826;2023-04-23T10:58:47;99134.44;;;27.92;28.30
11349;BME280;5729;43.570;27.826;2023-04-23T11:01:13;99136.84;;;27.51;28.19
11349;BME280;5729;43.570;27.826;2023-04-23T11:03:39;99130.59;;;27.41;29.07
11349;BME280;5729;43.570;27.826;2023-04-23T11:06:07;99132.88;;;28.53;28.98
11349;BME280;5729;43.570;27.826;2023-04-23T11:08:35;99143.19;;;28.67;28.53
11349;BME280;5729;43.570;27.826;2023-04-23T11:11:06;99141.09;;;26.68;31.87
11349;BME280;5729;43.570;27.826;2023-04-23T11:13:31;99147.09;;;26.02;33.68
11349;BME280;5729;43.570;27.826;2023-04-23T11:16:15;99164.88;;;25.34;33.26
11349;BME280;5729;43.570;27.826;2023-04-23T11:24:37;99138.53;;;24.15;39.12
11349;BME280;5729;43.570;27.826;2023-04-23T11:27:14;99151.53;;;26.00;36.49
11349;BME280;5729;43.570;27.826;2023-04-23T11:29:43;99146.44;;;26.81;34.04
11349;BME280;5729;43.570;27.826;2023-04-23T11:32:09;99153.13;;;26.28;34.19
11349;BME280;5729;43.570;27.826;2023-04-23T11:34:41;99153.78;;;24.72;34.91
11349;BME280;5729;43.570;27.826;2023-04-23T11:37:14;99149.84;;;22.94;37.78
11349;BME280;5729;43.570;27.826;2023-04-23T11:39:41;99145.69;;;23.14;39.75
11349;BME280;5729;43.570;27.826;2023-04-23T11:42:13;99143.22;;;23.93;37.96
11349;BME280;5729;43.570;27.826;2023-04-23T11:44:43;99144.59;;;23.50;38.04
11349;BME280;5729;43.570;27.826;2023-04-23T11:47:14;99143.13;;;22.95;39.73
11349;BME280;5729;43.570;27.826;2023-04-23T11:49:43;99149.53;;;22.05;40.17
11349;BME280;5729;43.570;27.826;2023-04-23T11:52:10;99157.53;;;21.67;43.81
11349;BME280;5729;43.570;27.826;2023-04-23T11:54:38;99151.00;;;21.28;46.52
11349;BME280;5729;43.570;27.826;2023-04-23T11:57:04;99142.97;;;21.18;42.80
11349;BME280;5729;43.570;27.826;2023-04-23T11:59:30;99157.06;;;21.36;43.51
11349;BME280;5729;43.570;27.826;2023-04-23T12:01:57;99150.22;;;22.09;44.24
11349;BME280;5729;43.570;27.826;2023-04-23T12:04:28;99150.41;;;23.77;40.96
11349;BME280;5729;43.570;27.826;2023-04-23T12:06:55;99131.63;;;25.38;38.61
11349;BME280;5729;43.570;27.826;2023-04-23T12:09:23;99136.50;;;25.92;34.24
11349;BME280;5729;43.570;27.826;2023-04-23T12:11:49;99136.72;;;25.57;33.98
11349;BME280;5729;43.570;27.826;2023-04-23T12:14:16;99144.91;;;25.61;33.42
11349;BME280;5729;43.570;27.826;2023-04-23T12:16:46;99128.66;;;25.72;33.46
11349;BME280;5729;43.570;27.826;2023-04-23T12:19:18;99122.13;;;26.33;33.94
11349;BME280;5729;43.570;27.826;2023-04-23T12:24:24;99119.94;;;26.19;33.09
11349;BME280;5729;43.570;27.826;2023-04-23T12:26:57;99125.25;;;25.59;36.01
11349;BME280;5729;43.570;27.826;2023-04-23T12:29:25;99122.03;;;24.89;35.11
11349;BME280;5729;43.570;27.826;2023-04-23T12:31:51;99120.59;;;24.76;37.18
11349;BME280;5729;43.570;27.826;2023-04-23T12:34:19;99120.97;;;23.87;36.23
11349;BME280;5729;43.570;27.826;2023-04-23T12:44:26;99112.22;;;24.88;34.97
11349;BME280;5729;43.570;27.826;2023-04-23T12:47:00;99118.00;;;25.03;34.88
11349;BME280;5729;43.570;27.826;2023-04-23T12:49:28;99112.69;;;24.87;34.18
11349;BME280;5729;43.570;27.826;2023-04-23T12:51:57;99113.22;;;24.51;34.53
11349;BME280;5729;43.570;27.826;2023-04-23T12:54:26;99113.25;;;23.47;35.46
11349;BME280;5729;43.570;27.826;2023-04-23T12:56:54;99118.44;;;22.53;36.72
11349;BME280;5729;43.570;27.826;2023-04-23T12:59:19;99101.13;;;22.94;37.21
11349;BME280;5729;43.570;27.826;2023-04-23T13:01:45;99107.19;;;23.27;37.27
11349;BME280;5729;43.570;27.826;2023-04-23T13:04:11;99109.06;;;23.17;37.50
11349;BME280;5729;43.570;27.826;2023-04-23T13:06:36;99101.81;;;23.24;36.60
11349;BME280;5729;43.570;27.826;2023-04-23T13:09:02;99106.09;;;22.99;38.99
11349;BME280;5729;43.570;27.826;2023-04-23T13:11:32;99097.69;;;22.65;37.72